Weather reports worldwide

Advertisment
Ayamonte, Spain (8381): temperature & dewpoint: 13.03.2019 10:00:00 - 19.03.2019 10:00:00 (CET)Ayamonte, Spain (8381): wind speed & gusts: 13.03.2019 10:00:00 - 19.03.2019 10:00:00 (CET)Ayamonte, Spain (8381): wind direction: 13.03.2019 10:00:00 - 19.03.2019 10:00:00 (CET)Ayamonte, Spain (8381): reduced air pressure: 13.03.2019 10:00:00 - 19.03.2019 10:00:00 (CET)Ayamonte, Spain (8381): precipitation: 13.03.2019 10:00:00 - 19.03.2019 10:00:00 (CET)
Date & Time tt [°C] td [°C] ff [km/h] ff [kn] fx [km/h] fx [kn] dd ppp [hPa] rr [mm]
19.03.2019 10:00:00 - - - - - - - - -
19.03.2019 09:00:00 11,3 3,6 5 3 13 7 N 1021,9 0,0
19.03.2019 08:00:00 9,1 2,7 4 2 8 4 N 1021,5 0,0
19.03.2019 07:00:00 9,0 2,9 4 2 11 6 N 1020,9 -
19.03.2019 06:00:00 9,6 3,0 5 3 11 6 NNW 1020,8 0,0
19.03.2019 05:00:00 10,3 3,8 3 2 12 6 N 1020,9 0,0
19.03.2019 04:00:00 10,4 4,8 4 2 10 5 N 1021,1 0,0
19.03.2019 03:00:00 10,0 6,5 3 1 7 4 N 1021,3 0,0
19.03.2019 02:00:00 10,3 6,7 2 1 7 4 NE 1021,6 0,0
19.03.2019 01:00:00 10,9 7,4 2 1 5 3 ENE 1021,6 -
19.03.2019 00:00:00 11,7 7,8 3 1 7 4 NNW 1021,5 0,0
18.03.2019 23:00:00 12,9 7,7 3 2 10 5 NNW 1021,3 0,0
18.03.2019 22:00:00 12,9 8,9 4 2 8 4 NW 1021,1 0,0
18.03.2019 21:00:00 13,8 9,7 4 2 10 5 W 1020,7 0,0
18.03.2019 20:00:00 14,5 8,7 6 3 17 9 W 1020,4 0,0
18.03.2019 19:00:00 16,4 8,4 9 5 17 9 WSW 1020,1 -
18.03.2019 18:00:00 17,8 8,4 13 7 19 10 WSW 1019,5 0,0
18.03.2019 17:00:00 18,7 8,7 11 6 18 10 SW 1019,5 0,0
18.03.2019 16:00:00 18,5 8,1 11 6 19 10 SSW 1019,8 0,0
18.03.2019 15:00:00 18,4 7,4 10 6 19 10 SSW 1020,2 0,0
18.03.2019 14:00:00 18,3 8,0 9 5 19 10 SSW 1020,9 0,0
18.03.2019 13:00:00 19,2 6,7 6 3 16 9 WSW 1021,0 -
18.03.2019 12:00:00 16,5 6,5 6 4 18 10 NNW 1021,1 0,0
18.03.2019 11:00:00 15,1 7,1 9 5 22 12 NNW 1021,1 0,0
18.03.2019 10:00:00 12,5 6,2 9 5 24 13 NNW 1020,8 0,0
18.03.2019 09:00:00 10,0 5,8 11 6 24 13 NNW 1020,8 0,0
18.03.2019 08:00:00 8,8 5,5 11 6 29 15 NNW 1020,3 0,0
18.03.2019 07:00:00 9,0 5,6 10 5 27 15 NNW 1019,9 -
18.03.2019 06:00:00 9,6 5,9 14 8 28 15 NNW 1019,7 0,0
18.03.2019 05:00:00 10,6 7,3 10 6 29 16 NNW 1019,6 0,0
18.03.2019 04:00:00 11,9 8,8 11 6 26 14 NNW 1019,6 0,0
18.03.2019 03:00:00 12,4 9,0 12 7 25 13 NNW 1020,1 0,0
18.03.2019 02:00:00 12,7 8,9 10 5 21 11 NNW 1020,5 0,0
18.03.2019 01:00:00 13,4 8,4 10 5 26 14 NNW 1020,2 -
18.03.2019 00:00:00 14,3 7,8 8 4 29 15 NNW 1020,5 0,0
17.03.2019 23:00:00 15,0 7,6 13 7 28 15 NNW 1020,2 0,0
17.03.2019 22:00:00 15,8 7,3 10 5 23 13 NNW 1020,1 0,0
17.03.2019 21:00:00 16,5 6,8 9 5 18 10 NNW 1019,4 0,0
17.03.2019 20:00:00 17,8 6,7 9 5 22 12 NNW 1019,0 0,0
17.03.2019 19:00:00 19,1 6,5 10 6 27 14 NNW 1019,0 -
17.03.2019 18:00:00 20,4 6,4 10 6 30 16 NNW 1018,9 0,0
17.03.2019 17:00:00 20,1 6,4 12 6 26 14 NNW 1019,1 0,0
17.03.2019 16:00:00 21,6 7,0 11 6 26 14 NNW 1019,3 0,0
17.03.2019 15:00:00 21,0 7,3 10 5 29 15 NNW 1019,6 0,0
17.03.2019 14:00:00 19,6 6,4 13 7 29 16 NNW 1020,6 0,0
17.03.2019 13:00:00 19,0 6,8 9 5 31 17 NW 1021,6 -
17.03.2019 12:00:00 16,7 6,8 13 7 34 18 NNW 1021,7 0,0
17.03.2019 11:00:00 14,1 6,7 15 8 33 18 NNW 1021,9 0,0
17.03.2019 10:00:00 11,7 7,0 11 6 27 15 NNW 1021,8 0,0
17.03.2019 09:00:00 10,1 7,1 7 4 29 16 N 1021,5 0,0
17.03.2019 08:00:00 9,1 6,5 11 6 26 14 NNW 1020,8 0,0
17.03.2019 07:00:00 10,0 5,8 10 6 23 12 NNW 1020,0 -
17.03.2019 06:00:00 10,6 5,8 6 4 18 10 NNW 1019,1 0,0
17.03.2019 05:00:00 11,5 6,7 8 4 21 11 NNW 1018,7 0,0
17.03.2019 04:00:00 12,2 6,1 11 6 27 15 NNW 1018,6 0,0
17.03.2019 03:00:00 12,8 4,8 13 7 28 15 NNW 1018,6 0,0
17.03.2019 02:00:00 12,9 4,3 8 4 24 13 N 1019,1 0,0
17.03.2019 01:00:00 11,9 6,8 3 2 12 7 N 1019,1 -
17.03.2019 00:00:00 10,8 9,7 0 0 3 2 E 1019,5 0,0
16.03.2019 23:00:00 11,2 9,7 0 0 0 0 N 1019,5 0,0
16.03.2019 22:00:00 12,5 10,9 0 0 3 2 N 1019,3 0,0
16.03.2019 21:00:00 13,0 11,1 0 0 4 2 N 1019,0 0,0
16.03.2019 20:00:00 14,5 11,4 1 0 8 5 SW 1018,7 0,0
16.03.2019 19:00:00 16,4 12,7 5 3 13 7 SSW 1018,5 -
16.03.2019 18:00:00 18,3 10,2 6 4 14 7 SSW 1018,4 0,0
16.03.2019 17:00:00 19,1 10,2 7 4 16 9 SSE 1018,6 0,0
16.03.2019 16:00:00 19,8 8,5 8 5 19 10 S 1018,7 0,0
16.03.2019 15:00:00 20,3 7,0 9 5 18 10 SSE 1019,4 0,0
16.03.2019 14:00:00 21,4 5,8 10 5 21 11 SE 1020,2 0,0
16.03.2019 13:00:00 21,3 4,3 10 5 19 11 SE 1020,8 -
16.03.2019 12:00:00 21,4 5,8 6 4 17 9 ESE 1021,0 0,0
16.03.2019 11:00:00 19,1 5,9 8 4 13 7 E 1021,1 0,0
16.03.2019 10:00:00 15,9 7,1 2 1 7 4 NNE 1021,2 0,0
16.03.2019 09:00:00 11,4 5,5 2 1 10 6 N 1020,8 0,0
16.03.2019 08:00:00 7,5 3,9 4 2 9 5 ENE 1020,9 0,0
16.03.2019 07:00:00 6,6 3,4 4 2 6 4 NE 1020,5 -
16.03.2019 06:00:00 6,1 3,2 3 1 6 3 NNW 1020,5 0,0
16.03.2019 05:00:00 6,8 3,4 0 0 2 1 N 1020,3 0,0
16.03.2019 04:00:00 7,3 3,2 0 0 3 1 N 1020,7 0,0
16.03.2019 03:00:00 8,2 3,4 0 0 2 1 N 1021,4 0,0
16.03.2019 02:00:00 9,1 4,5 0 0 3 2 N 1021,8 0,0
16.03.2019 01:00:00 9,8 3,0 0 0 3 1 NW 1022,1 -
16.03.2019 00:00:00 10,8 3,6 0 0 8 4 N 1022,4 0,0
15.03.2019 23:00:00 11,8 4,3 3 1 8 5 N 1022,3 0,0
15.03.2019 22:00:00 12,8 5,6 4 2 10 5 N 1022,1 0,0
15.03.2019 21:00:00 14,7 2,3 3 2 7 4 NW 1021,7 0,0
15.03.2019 20:00:00 17,4 2,9 4 2 9 5 W 1021,7 0,0
15.03.2019 19:00:00 20,6 4,6 6 3 11 6 W 1021,7 -
15.03.2019 18:00:00 22,5 5,5 6 3 13 7 WSW 1021,7 0,0
15.03.2019 17:00:00 22,4 5,3 8 4 14 8 SW 1021,8 0,0
15.03.2019 16:00:00 21,8 5,6 9 5 16 8 SW 1022,2 0,0
15.03.2019 15:00:00 22,3 5,3 9 5 17 9 S 1022,8 0,0
15.03.2019 14:00:00 22,0 5,0 9 5 17 9 ESE 1023,3 0,0
15.03.2019 13:00:00 21,3 6,4 7 4 14 8 SE 1024,2 -
15.03.2019 12:00:00 20,8 5,1 5 3 19 10 E 1024,6 0,0
15.03.2019 11:00:00 19,2 5,0 8 5 19 10 ENE 1024,7 0,0
15.03.2019 10:00:00 14,8 4,8 3 2 11 6 N 1024,9 0,0
15.03.2019 09:00:00 11,1 3,2 4 2 12 6 N 1024,8 0,0
15.03.2019 08:00:00 8,6 1,9 4 2 11 6 N 1024,6 0,0
15.03.2019 07:00:00 9,5 2,1 6 3 16 9 N 1024,4 -
15.03.2019 06:00:00 9,8 2,5 4 2 14 8 NNW 1024,0 0,0
15.03.2019 05:00:00 10,8 2,9 9 5 17 9 NNW 1023,9 0,0
15.03.2019 04:00:00 11,6 3,4 8 5 17 9 NNW 1024,1 0,0
15.03.2019 03:00:00 10,6 3,4 8 4 11 6 NNW 1024,6 0,0
15.03.2019 02:00:00 11,4 3,4 5 3 10 5 NNW 1024,8 0,0
15.03.2019 01:00:00 12,6 4,3 4 2 11 6 N 1025,1 -
15.03.2019 00:00:00 13,0 4,5 4 2 12 7 N 1025,3 0,0
14.03.2019 23:00:00 12,3 5,5 6 3 11 6 NNW 1025,2 0,0
14.03.2019 22:00:00 12,3 6,5 4 2 7 4 NW 1025,0 0,0
14.03.2019 21:00:00 13,3 4,1 1 0 6 3 WNW 1024,8 0,0
14.03.2019 20:00:00 15,0 4,3 3 1 6 4 NW 1024,9 0,0
14.03.2019 19:00:00 18,6 6,1 3 1 11 6 WSW 1024,7 -
14.03.2019 18:00:00 19,1 6,5 6 3 15 8 SW 1024,6 0,0
14.03.2019 17:00:00 19,1 7,6 9 5 19 11 SSW 1025,0 0,0
14.03.2019 16:00:00 21,3 6,4 12 6 21 11 SSW 1025,0 0,0
14.03.2019 15:00:00 21,9 5,3 8 4 18 10 SSE 1025,4 0,0
14.03.2019 14:00:00 20,9 4,8 7 4 16 8 SE 1026,2 0,0
14.03.2019 13:00:00 21,3 5,1 7 4 18 10 ESE 1027,1 -
14.03.2019 12:00:00 19,6 4,8 7 4 16 8 E 1027,8 0,0
14.03.2019 11:00:00 17,0 5,3 1 1 9 5 NNE 1028,1 0,0
14.03.2019 10:00:00 13,3 4,1 5 3 11 6 NNW 1027,9 0,0
14.03.2019 09:00:00 10,6 3,2 5 3 13 7 N 1027,5 0,0
14.03.2019 08:00:00 8,7 2,5 4 2 12 7 N 1026,9 0,0
14.03.2019 07:00:00 9,1 2,9 6 3 16 9 NNW 1026,6 -
14.03.2019 06:00:00 9,6 2,5 6 3 15 8 NNW 1026,2 0,0
14.03.2019 05:00:00 10,3 2,5 5 3 21 11 NNE 1026,0 0,0
14.03.2019 04:00:00 10,8 2,7 7 4 21 11 NNW 1026,2 0,0
14.03.2019 03:00:00 11,4 1,9 10 5 23 12 NNW 1026,6 0,0
14.03.2019 02:00:00 11,9 1,5 9 5 26 14 NNW 1026,5 0,0
14.03.2019 01:00:00 12,1 1,5 9 5 23 12 NNW 1026,5 -
14.03.2019 00:00:00 12,8 1,5 9 5 21 11 NNW 1026,5 0,0
13.03.2019 23:00:00 13,1 1,7 9 5 19 11 NNW 1026,6 0,0
13.03.2019 22:00:00 14,2 1,5 7 4 16 9 NNW 1026,4 0,0
13.03.2019 21:00:00 14,6 1,5 4 2 14 8 N 1026,3 0,0
13.03.2019 20:00:00 15,8 1,5 3 2 23 13 N 1026,0 0,0
13.03.2019 19:00:00 17,8 2,1 5 3 26 14 NNE 1025,7 -
13.03.2019 18:00:00 19,4 3,0 6 4 29 15 N 1025,2 0,0
13.03.2019 17:00:00 19,8 3,0 11 6 27 15 NNW 1025,3 0,0
13.03.2019 16:00:00 19,4 2,7 12 7 34 18 NNW 1025,5 0,0
13.03.2019 15:00:00 - - - - - - - - -
13.03.2019 14:00:00 19,0 3,6 13 7 36 19 NNW 1026,6 0,0
13.03.2019 13:00:00 17,6 4,5 8 4 27 15 N 1027,2 -
13.03.2019 12:00:00 15,4 5,3 8 5 30 16 N 1027,8 0,0
13.03.2019 11:00:00 13,4 3,8 9 5 29 16 N 1028,4 0,0
13.03.2019 10:00:00 11,7 2,7 11 6 36 20 NNW 1028,0 0,0

tt = temperature
td = dewpoint
ff = wind speed
fx = gusts
dd = wind direction
ppp = reduced air pressure
rr = precipitation

Next stations